sensor_id;sensor_type;location;lat;lon;timestamp;pressure;altitude;pressure_sealevel;temperature;humidity
5595;BME280;1003;48.002;7.788;2023-12-14T00:00:47;99076.19;;;7.22;100.00
5595;BME280;1003;48.002;7.788;2023-12-14T00:03:14;99087.84;;;7.23;100.00
5595;BME280;1003;48.002;7.788;2023-12-14T00:05:41;99086.16;;;7.25;100.00
5595;BME280;1003;48.002;7.788;2023-12-14T00:08:08;99095.34;;;7.23;100.00
5595;BME280;1003;48.002;7.788;2023-12-14T00:10:35;99088.66;;;7.20;100.00
5595;BME280;1003;48.002;7.788;2023-12-14T00:13:02;99105.34;;;7.23;100.00
5595;BME280;1003;48.002;7.788;2023-12-14T00:15:30;99102.00;;;7.22;100.00
5595;BME280;1003;48.002;7.788;2023-12-14T00:17:58;99102.84;;;7.21;100.00
5595;BME280;1003;48.002;7.788;2023-12-14T00:20:25;99116.97;;;7.21;100.00
5595;BME280;1003;48.002;7.788;2023-12-14T00:22:52;99114.47;;;7.19;100.00
5595;BME280;1003;48.002;7.788;2023-12-14T00:25:19;99125.31;;;7.20;100.00
5595;BME280;1003;48.002;7.788;2023-12-14T00:27:45;99124.47;;;7.18;100.00
5595;BME280;1003;48.002;7.788;2023-12-14T00:30:13;99130.31;;;7.20;100.00
5595;BME280;1003;48.002;7.788;2023-12-14T00:32:40;99141.16;;;7.22;100.00
5595;BME280;1003;48.002;7.788;2023-12-14T00:35:08;99149.47;;;7.21;100.00
5595;BME280;1003;48.002;7.788;2023-12-14T00:37:35;99153.63;;;7.20;100.00
5595;BME280;1003;48.002;7.788;2023-12-14T00:40:03;99155.31;;;7.23;100.00
5595;BME280;1003;48.002;7.788;2023-12-14T00:42:30;99165.31;;;7.23;100.00
5595;BME280;1003;48.002;7.788;2023-12-14T00:44:57;99164.47;;;7.18;100.00
5595;BME280;1003;48.002;7.788;2023-12-14T00:47:23;99168.63;;;7.17;100.00
5595;BME280;1003;48.002;7.788;2023-12-14T00:49:50;99170.31;;;7.18;100.00
5595;BME280;1003;48.002;7.788;2023-12-14T00:52:19;99179.47;;;7.16;100.00
5595;BME280;1003;48.002;7.788;2023-12-14T00:54:45;99173.63;;;7.17;100.00
5595;BME280;1003;48.002;7.788;2023-12-14T00:57:12;99181.09;;;7.14;100.00
5595;BME280;1003;48.002;7.788;2023-12-14T00:59:39;99183.63;;;7.11;100.00
5595;BME280;1003;48.002;7.788;2023-12-14T01:02:06;99188.59;;;7.08;100.00
5595;BME280;1003;48.002;7.788;2023-12-14T01:04:33;99194.41;;;7.04;100.00
5595;BME280;1003;48.002;7.788;2023-12-14T01:07:00;99198.56;;;7.03;100.00
5595;BME280;1003;48.002;7.788;2023-12-14T01:09:28;99206.88;;;6.99;100.00
5595;BME280;1003;48.002;7.788;2023-12-14T01:11:55;99205.16;;;6.94;100.00
5595;BME280;1003;48.002;7.788;2023-12-14T01:14:22;99216.81;;;6.93;100.00
5595;BME280;1003;48.002;7.788;2023-12-14T01:16:49;99214.34;;;6.90;100.00
5595;BME280;1003;48.002;7.788;2023-12-14T01:19:16;99217.63;;;6.88;100.00
5595;BME280;1003;48.002;7.788;2023-12-14T01:21:43;99220.97;;;6.87;100.00
5595;BME280;1003;48.002;7.788;2023-12-14T01:24:10;99230.97;;;6.88;100.00
5595;BME280;1003;48.002;7.788;2023-12-14T01:26:38;99245.16;;;6.92;100.00
5595;BME280;1003;48.002;7.788;2023-12-14T01:29:05;99255.16;;;6.97;100.00
5595;BME280;1003;48.002;7.788;2023-12-14T01:31:32;99261.84;;;6.95;100.00
5595;BME280;1003;48.002;7.788;2023-12-14T01:33:59;99273.50;;;6.97;100.00
5595;BME280;1003;48.002;7.788;2023-12-14T01:36:26;99281.00;;;6.97;100.00
5595;BME280;1003;48.002;7.788;2023-12-14T01:38:53;99279.31;;;6.98;100.00
5595;BME280;1003;48.002;7.788;2023-12-14T01:41:20;99290.97;;;6.99;100.00
5595;BME280;1003;48.002;7.788;2023-12-14T01:43:48;99290.97;;;6.97;100.00
5595;BME280;1003;48.002;7.788;2023-12-14T01:46:15;99304.34;;;7.01;100.00
5595;BME280;1003;48.002;7.788;2023-12-14T01:48:42;99311.03;;;7.09;100.00
5595;BME280;1003;48.002;7.788;2023-12-14T01:51:09;99321.03;;;7.06;100.00
5595;BME280;1003;48.002;7.788;2023-12-14T01:53:36;99322.66;;;7.04;100.00
5595;BME280;1003;48.002;7.788;2023-12-14T01:56:04;99331.88;;;7.05;100.00
5595;BME280;1003;48.002;7.788;2023-12-14T01:58:31;99340.16;;;7.04;100.00
5595;BME280;1003;48.002;7.788;2023-12-14T02:01:08;99359.31;;;7.04;100.00
5595;BME280;1003;48.002;7.788;2023-12-14T02:03:44;99363.47;;;7.02;100.00
5595;BME280;1003;48.002;7.788;2023-12-14T02:06:11;99366.84;;;7.07;100.00
5595;BME280;1003;48.002;7.788;2023-12-14T02:08:38;99367.69;;;7.07;100.00
5595;BME280;1003;48.002;7.788;2023-12-14T02:11:05;99378.47;;;7.03;100.00
5595;BME280;1003;48.002;7.788;2023-12-14T02:13:32;99385.16;;;7.04;100.00
5595;BME280;1003;48.002;7.788;2023-12-14T02:16:01;99392.63;;;7.04;100.00
5595;BME280;1003;48.002;7.788;2023-12-14T02:18:28;99391.81;;;7.02;100.00
5595;BME280;1003;48.002;7.788;2023-12-14T02:20:55;99391.81;;;7.01;100.00
5595;BME280;1003;48.002;7.788;2023-12-14T02:23:23;99406.81;;;7.02;100.00
5595;BME280;1003;48.002;7.788;2023-12-14T02:25:50;99405.13;;;7.01;100.00
5595;BME280;1003;48.002;7.788;2023-12-14T02:28:17;99409.25;;;6.99;100.00
5595;BME280;1003;48.002;7.788;2023-12-14T02:30:44;99417.59;;;6.98;100.00
5595;BME280;1003;48.002;7.788;2023-12-14T02:33:11;99412.59;;;6.95;100.00
5595;BME280;1003;48.002;7.788;2023-12-14T02:35:38;99410.88;;;6.93;100.00
5595;BME280;1003;48.002;7.788;2023-12-14T02:38:04;99412.53;;;6.91;100.00
5595;BME280;1003;48.002;7.788;2023-12-14T02:40:33;99416.66;;;6.87;100.00
5595;BME280;1003;48.002;7.788;2023-12-14T02:43:00;99409.16;;;6.89;100.00
5595;BME280;1003;48.002;7.788;2023-12-14T02:45:26;99415.81;;;6.83;100.00
5595;BME280;1003;48.002;7.788;2023-12-14T02:47:53;99423.28;;;6.79;100.00
5595;BME280;1003;48.002;7.788;2023-12-14T02:50:20;99429.06;;;6.78;100.00
5595;BME280;1003;48.002;7.788;2023-12-14T02:52:47;99420.72;;;6.76;100.00
5595;BME280;1003;48.002;7.788;2023-12-14T02:55:14;99439.09;;;6.79;100.00
5595;BME280;1003;48.002;7.788;2023-12-14T02:57:43;99450.75;;;6.82;100.00
5595;BME280;1003;48.002;7.788;2023-12-14T03:00:12;99450.75;;;6.82;100.00
5595;BME280;1003;48.002;7.788;2023-12-14T03:02:39;99450.81;;;6.85;100.00
5595;BME280;1003;48.002;7.788;2023-12-14T03:05:07;99468.38;;;6.94;100.00
5595;BME280;1003;48.002;7.788;2023-12-14T03:07:34;99480.88;;;6.96;100.00
5595;BME280;1003;48.002;7.788;2023-12-14T03:10:02;99480.84;;;6.93;100.00
5595;BME280;1003;48.002;7.788;2023-12-14T03:12:29;99479.16;;;6.92;100.00
5595;BME280;1003;48.002;7.788;2023-12-14T03:14:57;99496.72;;;6.96;100.00
5595;BME280;1003;48.002;7.788;2023-12-14T03:17:24;99500.03;;;6.98;100.00
5595;BME280;1003;48.002;7.788;2023-12-14T03:19:51;99505.88;;;6.99;100.00
5595;BME280;1003;48.002;7.788;2023-12-14T03:22:18;99504.22;;;6.99;100.00
5595;BME280;1003;48.002;7.788;2023-12-14T03:24:46;99511.72;;;6.99;100.00
5595;BME280;1003;48.002;7.788;2023-12-14T03:27:13;99521.72;;;6.99;100.00
5595;BME280;1003;48.002;7.788;2023-12-14T03:29:40;99530.91;;;7.02;100.00
5595;BME280;1003;48.002;7.788;2023-12-14T03:32:08;99535.91;;;7.03;100.00
5595;BME280;1003;48.002;7.788;2023-12-14T03:34:35;99550.91;;;7.03;100.00
5595;BME280;1003;48.002;7.788;2023-12-14T03:37:02;99555.91;;;7.03;100.00
5595;BME280;1003;48.002;7.788;2023-12-14T03:39:29;99570.06;;;7.04;100.00
5595;BME280;1003;48.002;7.788;2023-12-14T03:41:56;99579.25;;;7.04;100.00
5595;BME280;1003;48.002;7.788;2023-12-14T03:44:23;99645.06;;;7.04;100.00
5595;BME280;1003;48.002;7.788;2023-12-14T03:46:50;99660.03;;;7.03;100.00
5595;BME280;1003;48.002;7.788;2023-12-14T03:49:19;99673.41;;;7.05;100.00
5595;BME280;1003;48.002;7.788;2023-12-14T03:51:46;99685.91;;;7.06;100.00
5595;BME280;1003;48.002;7.788;2023-12-14T03:54:13;99697.56;;;7.06;100.00
5595;BME280;1003;48.002;7.788;2023-12-14T03:56:40;99711.75;;;7.05;100.00
5595;BME280;1003;48.002;7.788;2023-12-14T03:59:07;99716.75;;;7.07;100.00
5595;BME280;1003;48.002;7.788;2023-12-14T04:01:33;99732.56;;;7.07;100.00
5595;BME280;1003;48.002;7.788;2023-12-14T04:04:04;99745.91;;;7.06;100.00
5595;BME280;1003;48.002;7.788;2023-12-14T04:06:32;99750.91;;;7.08;100.00
5595;BME280;1003;48.002;7.788;2023-12-14T04:08:59;99751.75;;;7.07;100.00
5595;BME280;1003;48.002;7.788;2023-12-14T04:11:26;99386.84;;;7.08;100.00
5595;BME280;1003;48.002;7.788;2023-12-14T04:13:53;99388.50;;;7.06;100.00
5595;BME280;1003;48.002;7.788;2023-12-14T04:16:20;99400.19;;;7.09;100.00
5595;BME280;1003;48.002;7.788;2023-12-14T04:18:48;99386.88;;;7.12;100.00
5595;BME280;1003;48.002;7.788;2023-12-14T04:21:15;99400.19;;;7.07;100.00
5595;BME280;1003;48.002;7.788;2023-12-14T04:23:43;99400.19;;;7.07;100.00
5595;BME280;1003;48.002;7.788;2023-12-14T04:26:11;99412.78;;;7.24;100.00
5595;BME280;1003;48.002;7.788;2023-12-14T04:28:39;99405.25;;;7.18;100.00
5595;BME280;1003;48.002;7.788;2023-12-14T04:31:06;99401.03;;;7.13;100.00
5595;BME280;1003;48.002;7.788;2023-12-14T04:33:33;99398.50;;;7.09;100.00
5595;BME280;1003;48.002;7.788;2023-12-14T04:36:00;99398.50;;;7.09;100.00
5595;BME280;1003;48.002;7.788;2023-12-14T04:38:27;99403.50;;;7.06;100.00
5595;BME280;1003;48.002;7.788;2023-12-14T04:40:55;99409.34;;;7.08;100.00
5595;BME280;1003;48.002;7.788;2023-12-14T04:43:22;99411.84;;;7.07;100.00
5595;BME280;1003;48.002;7.788;2023-12-14T04:45:48;99415.16;;;7.07;100.00
5595;BME280;1003;48.002;7.788;2023-12-14T04:48:15;99427.66;;;7.07;100.00
5595;BME280;1003;48.002;7.788;2023-12-14T04:50:42;99418.50;;;7.05;100.00
5595;BME280;1003;48.002;7.788;2023-12-14T04:53:09;99420.13;;;7.04;100.00
5595;BME280;1003;48.002;7.788;2023-12-14T04:55:36;99427.63;;;7.03;100.00
5595;BME280;1003;48.002;7.788;2023-12-14T04:58:04;99429.31;;;7.05;100.00
5595;BME280;1003;48.002;7.788;2023-12-14T05:00:31;99434.34;;;7.10;100.00
5595;BME280;1003;48.002;7.788;2023-12-14T05:02:58;99439.34;;;7.08;100.00
5595;BME280;1003;48.002;7.788;2023-12-14T05:05:25;99446.00;;;7.09;100.00
5595;BME280;1003;48.002;7.788;2023-12-14T05:07:52;99445.16;;;7.07;100.00
5595;BME280;1003;48.002;7.788;2023-12-14T05:10:19;99433.41;;;6.99;100.00
5595;BME280;1003;48.002;7.788;2023-12-14T05:12:46;99444.25;;;6.96;100.00
5595;BME280;1003;48.002;7.788;2023-12-14T05:15:14;99451.72;;;6.96;100.00
5595;BME280;1003;48.002;7.788;2023-12-14T05:17:41;99444.19;;;6.93;100.00
5595;BME280;1003;48.002;7.788;2023-12-14T05:20:09;99444.19;;;6.90;100.00
5595;BME280;1003;48.002;7.788;2023-12-14T05:22:36;99449.19;;;6.90;100.00
5595;BME280;1003;48.002;7.788;2023-12-14T05:25:04;99449.19;;;6.92;100.00
5595;BME280;1003;48.002;7.788;2023-12-14T05:27:31;99450.03;;;6.94;100.00
5595;BME280;1003;48.002;7.788;2023-12-14T05:29:58;99452.53;;;6.92;100.00
5595;BME280;1003;48.002;7.788;2023-12-14T05:32:26;99458.41;;;6.99;100.00
5595;BME280;1003;48.002;7.788;2023-12-14T05:34:53;99451.72;;;6.96;100.00
5595;BME280;1003;48.002;7.788;2023-12-14T05:37:20;99457.56;;;6.95;100.00
5595;BME280;1003;48.002;7.788;2023-12-14T05:39:47;99464.19;;;6.93;100.00
5595;BME280;1003;48.002;7.788;2023-12-14T05:42:16;99465.06;;;6.98;100.00
5595;BME280;1003;48.002;7.788;2023-12-14T05:44:43;99470.09;;;7.00;100.00
5595;BME280;1003;48.002;7.788;2023-12-14T05:47:11;99470.09;;;7.00;100.00
5595;BME280;1003;48.002;7.788;2023-12-14T05:49:42;99474.22;;;6.99;100.00
5595;BME280;1003;48.002;7.788;2023-12-14T05:52:10;99486.72;;;6.99;100.00
5595;BME280;1003;48.002;7.788;2023-12-14T05:54:37;99490.09;;;7.01;100.00
5595;BME280;1003;48.002;7.788;2023-12-14T05:57:05;99498.44;;;7.03;100.00
5595;BME280;1003;48.002;7.788;2023-12-14T05:59:32;99500.94;;;7.03;100.00
5595;BME280;1003;48.002;7.788;2023-12-14T06:02:00;99508.41;;;7.02;100.00
5595;BME280;1003;48.002;7.788;2023-12-14T06:04:28;99507.59;;;7.01;100.00
5595;BME280;1003;48.002;7.788;2023-12-14T06:06:56;99513.41;;;7.02;100.00
5595;BME280;1003;48.002;7.788;2023-12-14T06:09:23;99520.09;;;7.03;100.00
5595;BME280;1003;48.002;7.788;2023-12-14T06:11:57;99521.75;;;7.02;100.00
5595;BME280;1003;48.002;7.788;2023-12-14T06:14:24;99533.47;;;7.05;100.00
5595;BME280;1003;48.002;7.788;2023-12-14T06:16:51;99534.25;;;7.01;100.00
5595;BME280;1003;48.002;7.788;2023-12-14T06:19:18;99537.56;;;7.01;100.00
5595;BME280;1003;48.002;7.788;2023-12-14T06:21:45;99542.53;;;6.98;100.00
5595;BME280;1003;48.002;7.788;2023-12-14T06:24:13;99544.19;;;6.99;100.00
5595;BME280;1003;48.002;7.788;2023-12-14T06:26:41;99539.19;;;6.98;100.00
5595;BME280;1003;48.002;7.788;2023-12-14T06:29:09;99545.84;;;6.97;100.00
5595;BME280;1003;48.002;7.788;2023-12-14T06:31:36;99555.06;;;7.00;100.00
5595;BME280;1003;48.002;7.788;2023-12-14T06:34:03;99561.72;;;7.01;100.00
5595;BME280;1003;48.002;7.788;2023-12-14T06:36:30;99567.56;;;7.00;100.00
5595;BME280;1003;48.002;7.788;2023-12-14T06:38:57;99560.91;;;7.00;100.00
5595;BME280;1003;48.002;7.788;2023-12-14T06:41:27;99575.06;;;7.01;100.00
5595;BME280;1003;48.002;7.788;2023-12-14T06:43:55;99579.22;;;7.02;100.00
5595;BME280;1003;48.002;7.788;2023-12-14T06:46:22;99576.72;;;7.01;100.00
5595;BME280;1003;48.002;7.788;2023-12-14T06:48:49;99583.41;;;7.02;100.00
5595;BME280;1003;48.002;7.788;2023-12-14T06:51:15;99586.72;;;7.01;100.00
5595;BME280;1003;48.002;7.788;2023-12-14T06:53:43;99590.06;;;7.01;100.00
5595;BME280;1003;48.002;7.788;2023-12-14T06:56:11;99600.06;;;7.01;100.00
5595;BME280;1003;48.002;7.788;2023-12-14T06:58:41;99608.44;;;7.05;100.00
5595;BME280;1003;48.002;7.788;2023-12-14T07:01:12;99610.94;;;7.05;100.00
5595;BME280;1003;48.002;7.788;2023-12-14T07:03:40;99612.63;;;7.09;100.00
5595;BME280;1003;48.002;7.788;2023-12-14T07:06:08;99617.59;;;7.06;100.00
5595;BME280;1003;48.002;7.788;2023-12-14T07:08:38;99617.56;;;7.04;100.00
5595;BME280;1003;48.002;7.788;2023-12-14T07:11:06;99626.72;;;7.02;100.00
5595;BME280;1003;48.002;7.788;2023-12-14T07:13:33;99643.41;;;7.05;100.00
5595;BME280;1003;48.002;7.788;2023-12-14T07:16:04;99640.06;;;7.04;100.00
5595;BME280;1003;48.002;7.788;2023-12-14T07:18:31;99647.56;;;7.04;100.00
5595;BME280;1003;48.002;7.788;2023-12-14T07:20:58;99651.75;;;7.05;100.00
5595;BME280;1003;48.002;7.788;2023-12-14T07:23:25;99664.28;;;7.10;100.00
5595;BME280;1003;48.002;7.788;2023-12-14T07:25:52;99666.75;;;7.07;100.00
5595;BME280;1003;48.002;7.788;2023-12-14T07:28:19;99656.78;;;7.08;100.00
5595;BME280;1003;48.002;7.788;2023-12-14T07:30:46;99664.28;;;7.08;100.00
5595;BME280;1003;48.002;7.788;2023-12-14T07:33:15;99667.59;;;7.06;100.00
5595;BME280;1003;48.002;7.788;2023-12-14T07:35:43;99675.09;;;7.06;100.00
5595;BME280;1003;48.002;7.788;2023-12-14T07:38:11;99668.47;;;7.11;100.00
5595;BME280;1003;48.002;7.788;2023-12-14T07:40:38;99671.81;;;7.13;100.00
5595;BME280;1003;48.002;7.788;2023-12-14T07:43:06;99677.72;;;7.17;100.00
5595;BME280;1003;48.002;7.788;2023-12-14T07:45:33;99669.38;;;7.16;100.00
5595;BME280;1003;48.002;7.788;2023-12-14T07:48:00;99676.06;;;7.20;100.00
5595;BME280;1003;48.002;7.788;2023-12-14T07:50:28;99679.50;;;7.27;100.00
5595;BME280;1003;48.002;7.788;2023-12-14T07:52:55;99663.69;;;7.31;100.00
5595;BME280;1003;48.002;7.788;2023-12-14T07:55:22;99682.06;;;7.33;100.00
5595;BME280;1003;48.002;7.788;2023-12-14T07:57:49;99686.25;;;7.35;100.00
5595;BME280;1003;48.002;7.788;2023-12-14T08:00:17;99680.44;;;7.38;100.00
5595;BME280;1003;48.002;7.788;2023-12-14T08:02:44;99689.69;;;7.45;100.00
5595;BME280;1003;48.002;7.788;2023-12-14T08:05:10;99700.53;;;7.44;100.00
5595;BME280;1003;48.002;7.788;2023-12-14T08:07:39;99704.69;;;7.44;100.00
5595;BME280;1003;48.002;7.788;2023-12-14T08:10:07;99699.69;;;7.45;100.00
5595;BME280;1003;48.002;7.788;2023-12-14T08:12:34;99691.41;;;7.49;100.00
5595;BME280;1003;48.002;7.788;2023-12-14T08:15:01;99687.22;;;7.48;100.00
5595;BME280;1003;48.002;7.788;2023-12-14T08:17:29;99697.34;;;7.59;100.00
5595;BME280;1003;48.002;7.788;2023-12-14T08:19:55;99698.25;;;7.66;100.00
5595;BME280;1003;48.002;7.788;2023-12-14T08:22:22;99697.47;;;7.70;100.00
5595;BME280;1003;48.002;7.788;2023-12-14T08:24:51;99700.81;;;7.73;100.00
5595;BME280;1003;48.002;7.788;2023-12-14T08:27:18;99703.31;;;7.72;100.00
5595;BME280;1003;48.002;7.788;2023-12-14T08:29:45;99704.09;;;7.69;100.00
5595;BME280;1003;48.002;7.788;2023-12-14T08:32:12;99699.91;;;7.68;100.00
5595;BME280;1003;48.002;7.788;2023-12-14T08:34:40;99715.75;;;7.66;100.00
5595;BME280;1003;48.002;7.788;2023-12-14T08:37:07;99709.03;;;7.61;100.00
5595;BME280;1003;48.002;7.788;2023-12-14T08:39:34;99721.59;;;7.68;100.00
5595;BME280;1003;48.002;7.788;2023-12-14T08:42:03;99723.31;;;7.72;100.00
5595;BME280;1003;48.002;7.788;2023-12-14T08:44:30;99720.81;;;7.75;100.00
5595;BME280;1003;48.002;7.788;2023-12-14T08:46:57;99724.22;;;7.78;100.00
5595;BME280;1003;48.002;7.788;2023-12-14T08:49:24;99726.75;;;7.81;100.00
5595;BME280;1003;48.002;7.788;2023-12-14T08:51:51;99724.31;;;7.86;100.00
5595;BME280;1003;48.002;7.788;2023-12-14T08:54:18;99721.03;;;7.93;100.00
5595;BME280;1003;48.002;7.788;2023-12-14T08:56:45;99728.53;;;7.93;100.00
5595;BME280;1003;48.002;7.788;2023-12-14T08:59:13;99717.63;;;7.88;100.00
5595;BME280;1003;48.002;7.788;2023-12-14T09:01:40;99718.53;;;7.96;100.00
5595;BME280;1003;48.002;7.788;2023-12-14T09:04:07;99710.19;;;7.96;100.00
5595;BME280;1003;48.002;7.788;2023-12-14T09:06:34;99708.50;;;7.95;100.00
5595;BME280;1003;48.002;7.788;2023-12-14T09:09:01;99709.34;;;7.94;100.00
5595;BME280;1003;48.002;7.788;2023-12-14T09:11:30;99708.50;;;7.92;100.00
5595;BME280;1003;48.002;7.788;2023-12-14T09:13:57;99710.97;;;7.90;100.00
5595;BME280;1003;48.002;7.788;2023-12-14T09:16:25;99718.63;;;8.05;100.00
5595;BME280;1003;48.002;7.788;2023-12-14T09:18:52;99708.59;;;8.04;100.00
5595;BME280;1003;48.002;7.788;2023-12-14T09:21:19;99707.81;;;8.12;100.00
5595;BME280;1003;48.002;7.788;2023-12-14T09:23:47;99713.75;;;8.19;100.00
5595;BME280;1003;48.002;7.788;2023-12-14T09:26:14;99706.28;;;8.24;100.00
5595;BME280;1003;48.002;7.788;2023-12-14T09:28:41;99715.47;;;8.26;100.00
5595;BME280;1003;48.002;7.788;2023-12-14T09:31:09;99713.81;;;8.31;100.00
5595;BME280;1003;48.002;7.788;2023-12-14T09:33:38;99776.44;;;8.33;100.00
5595;BME280;1003;48.002;7.788;2023-12-14T09:36:06;99813.28;;;8.40;100.00
5595;BME280;1003;48.002;7.788;2023-12-14T09:38:33;99830.78;;;8.37;100.00
5595;BME280;1003;48.002;7.788;2023-12-14T10:03:24;99875.75;;;9.20;100.00
5595;BME280;1003;48.002;7.788;2023-12-14T10:05:52;99875.81;;;9.36;100.00
5595;BME280;1003;48.002;7.788;2023-12-14T10:08:20;99870.84;;;9.46;100.00
5595;BME280;1003;48.002;7.788;2023-12-14T10:10:49;99856.66;;;9.47;100.00
5595;BME280;1003;48.002;7.788;2023-12-14T10:13:19;99830.66;;;9.34;100.00
5595;BME280;1003;48.002;7.788;2023-12-14T10:15:47;99819.72;;;9.25;100.00
5595;BME280;1003;48.002;7.788;2023-12-14T10:18:22;99812.19;;;9.15;100.00
5595;BME280;1003;48.002;7.788;2023-12-14T10:20:50;99784.56;;;9.12;100.00
5595;BME280;1003;48.002;7.788;2023-12-14T10:23:18;99775.34;;;9.07;100.00
5595;BME280;1003;48.002;7.788;2023-12-14T10:25:46;99761.94;;;9.02;100.00
5595;BME280;1003;48.002;7.788;2023-12-14T10:28:13;99746.06;;;9.03;100.00
5595;BME280;1003;48.002;7.788;2023-12-14T10:30:40;99742.66;;;8.93;100.00
5595;BME280;1003;48.002;7.788;2023-12-14T10:33:08;99734.31;;;8.94;100.00
5595;BME280;1003;48.002;7.788;2023-12-14T10:35:36;99720.06;;;8.85;100.00
5595;BME280;1003;48.002;7.788;2023-12-14T10:38:05;99704.19;;;8.86;100.00
5595;BME280;1003;48.002;7.788;2023-12-14T10:40:33;99688.38;;;8.95;100.00
5595;BME280;1003;48.002;7.788;2023-12-14T10:43:04;99684.22;;;9.08;100.00
5595;BME280;1003;48.002;7.788;2023-12-14T10:45:33;99685.09;;;9.11;100.00
5595;BME280;1003;48.002;7.788;2023-12-14T10:48:01;99682.59;;;9.17;100.00
5595;BME280;1003;48.002;7.788;2023-12-14T10:50:30;99636.59;;;9.14;100.00
5595;BME280;1003;48.002;7.788;2023-12-14T10:52:59;99637.50;;;9.27;100.00
5595;BME280;1003;48.002;7.788;2023-12-14T10:55:33;99630.78;;;9.23;100.00
5595;BME280;1003;48.002;7.788;2023-12-14T10:58:03;99645.00;;;9.20;100.00
5595;BME280;1003;48.002;7.788;2023-12-14T11:00:31;99635.78;;;9.19;100.00
5595;BME280;1003;48.002;7.788;2023-12-14T11:02:59;99636.66;;;9.29;100.00
5595;BME280;1003;48.002;7.788;2023-12-14T11:05:27;99637.50;;;9.33;100.00
5595;BME280;1003;48.002;7.788;2023-12-14T11:08:01;99636.69;;;9.38;100.00
5595;BME280;1003;48.002;7.788;2023-12-14T11:10:38;99640.88;;;9.58;100.00
5595;BME280;1003;48.002;7.788;2023-12-14T11:13:08;99636.72;;;9.66;100.00
5595;BME280;1003;48.002;7.788;2023-12-14T11:15:38;99631.72;;;9.81;100.00
5595;BME280;1003;48.002;7.788;2023-12-14T11:18:26;99620.81;;;9.78;100.00
5595;BME280;1003;48.002;7.788;2023-12-14T11:20:58;99620.81;;;9.82;100.00
5595;BME280;1003;48.002;7.788;2023-12-14T11:23:33;99620.81;;;9.90;100.00
5595;BME280;1003;48.002;7.788;2023-12-14T11:26:04;99622.47;;;10.00;100.00
5595;BME280;1003;48.002;7.788;2023-12-14T11:28:34;99612.44;;;10.00;100.00
5595;BME280;1003;48.002;7.788;2023-12-14T11:31:03;99606.59;;;10.07;100.00
5595;BME280;1003;48.002;7.788;2023-12-14T11:33:33;99589.84;;;10.02;100.00
5595;BME280;1003;48.002;7.788;2023-12-14T11:36:01;99596.56;;;10.01;100.00
5595;BME280;1003;48.002;7.788;2023-12-14T11:38:30;99590.69;;;9.99;100.00
5595;BME280;1003;48.002;7.788;2023-12-14T11:40:58;99599.88;;;9.98;100.00
5595;BME280;1003;48.002;7.788;2023-12-14T11:43:25;99606.59;;;9.92;100.00
5595;BME280;1003;48.002;7.788;2023-12-14T11:45:53;99603.25;;;9.93;100.00
5595;BME280;1003;48.002;7.788;2023-12-14T11:48:21;99608.25;;;9.88;100.00
5595;BME280;1003;48.002;7.788;2023-12-14T11:50:48;99614.13;;;9.86;100.00
5595;BME280;1003;48.002;7.788;2023-12-14T11:53:15;99620.00;;;9.82;100.00
5595;BME280;1003;48.002;7.788;2023-12-14T11:55:44;99615.81;;;9.71;100.00
5595;BME280;1003;48.002;7.788;2023-12-14T11:58:13;99635.88;;;9.71;100.00
5595;BME280;1003;48.002;7.788;2023-12-14T12:00:40;99629.19;;;9.64;100.00
5595;BME280;1003;48.002;7.788;2023-12-14T12:03:09;99638.41;;;9.64;100.00
5595;BME280;1003;48.002;7.788;2023-12-14T12:05:39;99642.56;;;9.71;100.00
5595;BME280;1003;48.002;7.788;2023-12-14T12:08:07;99645.09;;;9.76;100.00
5595;BME280;1003;48.002;7.788;2023-12-14T12:10:36;99651.78;;;9.78;100.00
5595;BME280;1003;48.002;7.788;2023-12-14T12:13:07;99647.59;;;9.82;100.00
5595;BME280;1003;48.002;7.788;2023-12-14T12:15:35;99649.28;;;9.83;100.00
5595;BME280;1003;48.002;7.788;2023-12-14T12:18:05;99658.47;;;9.88;100.00
5595;BME280;1003;48.002;7.788;2023-12-14T12:20:33;99621.66;;;9.70;100.00
5595;BME280;1003;48.002;7.788;2023-12-14T12:23:00;99658.50;;;10.02;100.00
5595;BME280;1003;48.002;7.788;2023-12-14T12:25:29;99659.31;;;10.15;100.00
5595;BME280;1003;48.002;7.788;2023-12-14T12:27:56;99660.13;;;10.21;100.00
5595;BME280;1003;48.002;7.788;2023-12-14T12:30:25;99653.47;;;10.30;100.00
5595;BME280;1003;48.002;7.788;2023-12-14T12:32:52;99661.84;;;10.30;100.00
5595;BME280;1003;48.002;7.788;2023-12-14T12:35:22;99662.66;;;10.37;100.00
5595;BME280;1003;48.002;7.788;2023-12-14T12:37:52;99687.81;;;10.40;100.00
5595;BME280;1003;48.002;7.788;2023-12-14T12:40:22;99693.66;;;10.37;100.00
5595;BME280;1003;48.002;7.788;2023-12-14T12:42:51;99699.53;;;10.32;100.00
5595;BME280;1003;48.002;7.788;2023-12-14T12:45:18;99712.91;;;10.08;100.00
5595;BME280;1003;48.002;7.788;2023-12-14T12:47:49;99700.34;;;10.12;100.00
5595;BME280;1003;48.002;7.788;2023-12-14T12:50:16;99712.06;;;10.16;100.00
5595;BME280;1003;48.002;7.788;2023-12-14T12:52:43;99713.75;;;10.17;100.00
5595;BME280;1003;48.002;7.788;2023-12-14T12:55:11;99712.91;;;10.12;100.00
5595;BME280;1003;48.002;7.788;2023-12-14T12:57:38;99716.25;;;10.14;100.00
5595;BME280;1003;48.002;7.788;2023-12-14T13:00:07;99712.06;;;10.07;100.00
5595;BME280;1003;48.002;7.788;2023-12-14T13:02:37;99714.56;;;9.98;100.00
5595;BME280;1003;48.002;7.788;2023-12-14T13:05:07;99718.75;;;9.99;100.00
5595;BME280;1003;48.002;7.788;2023-12-14T13:07:34;99714.56;;;9.98;100.00
5595;BME280;1003;48.002;7.788;2023-12-14T13:10:01;99711.22;;;9.97;100.00
5595;BME280;1003;48.002;7.788;2023-12-14T13:12:29;99716.25;;;10.02;100.00
5595;BME280;1003;48.002;7.788;2023-12-14T13:14:56;99708.72;;;10.02;100.00
5595;BME280;1003;48.002;7.788;2023-12-14T13:17:22;99702.03;;;10.01;100.00
5595;BME280;1003;48.002;7.788;2023-12-14T13:19:51;99712.06;;;10.10;100.00
5595;BME280;1003;48.002;7.788;2023-12-14T13:22:19;99710.41;;;10.12;100.00
5595;BME280;1003;48.002;7.788;2023-12-14T13:24:46;99714.59;;;10.07;100.00
5595;BME280;1003;48.002;7.788;2023-12-14T13:27:13;99716.25;;;10.07;100.00
5595;BME280;1003;48.002;7.788;2023-12-14T13:29:40;99748.88;;;9.99;100.00
5595;BME280;1003;48.002;7.788;2023-12-14T13:32:07;99748.06;;;10.03;100.00
5595;BME280;1003;48.002;7.788;2023-12-14T13:34:34;99746.38;;;9.99;100.00
5595;BME280;1003;48.002;7.788;2023-12-14T13:37:01;99742.19;;;9.93;100.00
5595;BME280;1003;48.002;7.788;2023-12-14T13:39:30;99748.03;;;9.82;100.00
5595;BME280;1003;48.002;7.788;2023-12-14T13:41:59;99750.53;;;9.76;100.00
5595;BME280;1003;48.002;7.788;2023-12-14T13:44:26;99756.38;;;9.70;100.00